Flight Track Log - Related Links

Times and Time Zones

All times are in EDT time to prevent confusion due to time zone crossing. See the JBU231 flight status page for this flight to view local times or setup timezone preferences in your user account.

Time Position Orientation Groundspeed Altitude Reporting Facility
EDT Latitude Longitude Course Direction KTS MPH feet Rate Location/Type
Thu 02:38:27 PM 40.8016 -111.9763 355° North 176 203 4,300  Level FlightAware ADS-B
Thu 02:38:47 PM 40.8177 -111.9794 355° North 176 203 5,200 2,870 Climbing FlightAware ADS-B
Thu 02:38:50 PM 40.8199 -111.9807 333° Northwest 179 206 5,400 1,742 Climbing FlightAware ADS-B (KBTF)
Thu 02:39:18 PM 40.8310 -112.0064 276° West 193 222 6,100 1,625 Climbing FlightAware ADS-B (KBTF)
Thu 02:39:38 PM 40.8313 -112.0308 269° West 206 237 6,700 1,800 Climbing FlightAware ADS-B (KBTF)
Thu 02:39:58 PM 40.8307 -112.0577 270° West 223 257 7,300 1,667 Climbing FlightAware ADS-B (KBTF)
Thu 02:40:14 PM 40.8311 -112.0457 270° West 212 244 7,700 2,118 Climbing FlightAware ADS-B
Thu 02:40:32 PM 40.8299 -112.1074 269° West 250 288 8,500 2,160 Climbing FlightAware ADS-B (KBTF)
Thu 02:40:39 PM 40.8290 -112.1178 261° West 250 288 8,600 1,125 Climbing FlightAware ADS-B
Thu 02:40:48 PM 40.8266 -112.1320 258° West 248 285 8,800 600 Climbing FlightAware ADS-B
Thu 02:41:09 PM 40.8212 -112.1616 256° West 248 285 8,900 158 Climbing FlightAware ADS-B
Thu 02:41:26 PM 40.8163 -112.1876 258° West 249 287 8,900  Level FlightAware ADS-B
Thu 02:41:46 PM 40.8106 -112.2167 254° West 249 287 8,900 -261 Level FlightAware ADS-B (KBTF)
Thu 02:41:49 PM 40.8091 -112.2216 248° West 253 291 8,800 400 Descending FlightAware ADS-B
Thu 02:42:01 PM 40.8028 -112.2342 225° Southwest 257 296 9,000 1,059 Climbing FlightAware ADS-B
Thu 02:42:06 PM 40.7964 -112.2413 216° Southwest 263 303 9,100 1,800 Climbing FlightAware ADS-B (KBTF)
Thu 02:42:11 PM 40.7921 -112.2449 211° Southwest 269 310 9,300 2,333 Climbing FlightAware ADS-B
Thu 02:42:42 PM 40.7564 -112.2712 204° Southwest 283 326 10,500 2,195 Climbing FlightAware ADS-B
Thu 02:42:52 PM 40.7447 -112.2763 194° South 287 330 10,800 878 Climbing FlightAware ADS-B
Thu 02:43:23 PM 40.7031 -112.2883 192° South 313 360 11,100 1,180 Climbing FlightAware ADS-B
Thu 02:43:53 PM 40.6573 -112.2973 187° South 338 389 12,000 2,262 Climbing FlightAware ADS-B
Thu 02:44:24 PM 40.6098 -112.3049 187° South 346 398 13,400 2,262 Climbing FlightAware ADS-B
Thu 02:44:54 PM 40.5598 -112.3131 187° South 366 421 14,300 1,900 Climbing FlightAware ADS-B
Thu 02:45:24 PM 40.5090 -112.3229 189° South 379 436 15,300 2,286 Climbing FlightAware ADS-B
Thu 02:45:57 PM 40.4534 -112.3352 190° South 383 441 16,700 2,250 Climbing FlightAware ADS-B
Thu 02:46:28 PM 40.3958 -112.3475 189° South 388 447 17,700 2,032 Climbing FlightAware ADS-B
Thu 02:46:59 PM 40.3395 -112.3607 196° South 400 460 18,800 2,100 Climbing FlightAware ADS-B
Thu 02:47:08 PM 40.3232 -112.3687 203° Southwest 405 466 19,100 1,800 Climbing FlightAware ADS-B
Thu 02:47:19 PM 40.3044 -112.3808 208° Southwest 403 464 19,400 1,714 Climbing FlightAware ADS-B (KBTF)
Thu 02:47:29 PM 40.2887 -112.3918 209° Southwest 406 467 19,700 1,714 Climbing FlightAware ADS-B
Thu 02:48:01 PM 40.2356 -112.4300 209° Southwest 423 487 20,600 1,839 Climbing FlightAware ADS-B
Thu 02:48:31 PM 40.1821 -112.4682 209° Southwest 426 490 21,600 2,129 Climbing FlightAware ADS-B
Thu 02:49:03 PM 40.1283 -112.5063 208° Southwest 423 487 22,800 2,710 Climbing FlightAware ADS-B
Thu 02:49:33 PM 40.0758 -112.5433 208° Southwest 408 470 24,400 3,246 Climbing FlightAware ADS-B
Thu 02:50:04 PM 40.0302 -112.5753 208° Southwest 388 447 26,100 3,097 Climbing FlightAware ADS-B
Thu 02:50:35 PM 39.9780 -112.6116 208° Southwest 376 433 27,600 1,645 Climbing FlightAware ADS-B
Thu 02:51:06 PM 39.9293 -112.6459 208° Southwest 393 452 27,800 429 Climbing FlightAware ADS-B
Thu 02:51:45 PM 39.8648 -112.6913 209° Southwest 406 467 28,100 686 Climbing FlightAware ADS-B (KBTF)
Thu 02:52:16 PM 39.8122 -112.7279 208° Southwest 421 484 28,600 938 Climbing FlightAware ADS-B
Thu 02:52:49 PM 39.7547 -112.7680 209° Southwest 421 484 29,100 857 Climbing FlightAware ADS-B
Thu 02:53:19 PM 39.7022 -112.8020 204° Southwest 427 491 29,500 1,105 Climbing FlightAware ADS-B (KBTF)
Thu 02:53:27 PM 39.7261 -112.7875 203° Southwest 436 502 29,800 1,500 Climbing FlightAware ADS-B
Thu 02:53:39 PM 39.6640 -112.8209 200° South 429 494 30,000 1,256 Climbing FlightAware ADS-B (KBTF)
Thu 02:54:10 PM 39.6045 -112.8428 194° South 438 504 30,700 1,279 Climbing FlightAware ADS-B
Thu 02:54:40 PM 39.5453 -112.8630 195° South 438 504 31,300 1,300 Climbing FlightAware ADS-B
Thu 02:55:10 PM 39.4857 -112.8835 195° South 435 501 32,000 1,333 Climbing FlightAware ADS-B
Thu 02:55:43 PM 39.4231 -112.9044 194° South 435 501 32,700 1,500 Climbing FlightAware ADS-B
Thu 02:56:14 PM 39.3629 -112.9241 194° South 427 491 33,600 1,180 Climbing FlightAware ADS-B
Thu 02:56:44 PM 39.3055 -112.9429 194° South 433 498 33,900 387 Climbing FlightAware ADS-B (KBTF)
Thu 02:57:16 PM 39.2431 -112.9635 194° South 429 494 34,000 95 Climbing FlightAware ADS-B
Thu 02:57:47 PM 39.1834 -112.9827 194° South 432 497 34,000  Level FlightAware ADS-B
Thu 02:58:17 PM 39.1250 -113.0015 194° South 433 498 34,000  Level FlightAware ADS-B (KBTF)
Thu 02:58:48 PM 39.0661 -113.0201 194° South 434 499 34,000  Level FlightAware ADS-B
Thu 02:59:20 PM 39.0022 -113.0403 194° South 433 498 34,000 97 Level FlightAware ADS-B
Thu 02:59:50 PM 38.9463 -113.0581 194° South 433 498 34,100 492 Climbing FlightAware ADS-B
Thu 03:00:21 PM 38.8836 -113.0780 194° South 434 499 34,500 659 Climbing FlightAware ADS-B
Thu 03:01:12 PM 38.7854 -113.1094 194° South 431 496 35,000 370 Climbing FlightAware ADS-B
Thu 03:01:42 PM 38.7301 -113.1269 194° South 430 495 35,000  Level FlightAware ADS-B
Thu 03:02:13 PM 38.6696 -113.1461 194° South 430 495 35,000  Level FlightAware ADS-B
Thu 03:02:43 PM 38.6088 -113.1653 194° South 427 491 35,000  Level FlightAware ADS-B
Thu 03:03:17 PM 38.5440 -113.1885 202° Southwest 427 491 35,000  Level FlightAware ADS-B
Thu 03:03:48 PM 38.4907 -113.2241 209° Southwest 425 489 35,000  Level FlightAware ADS-B
Thu 03:04:19 PM 38.4361 -113.2617 208° Southwest 426 490 35,000 194 Level FlightAware ADS-B
Thu 03:04:50 PM 38.3850 -113.2951 203° Southwest 429 494 35,200 677 Climbing FlightAware ADS-B
Thu 03:05:21 PM 38.3253 -113.3185 195° South 433 498 35,700 787 Climbing FlightAware ADS-B
Thu 03:05:51 PM 38.2654 -113.3387 195° South 436 502 36,000 225 Climbing FlightAware ADS-B
Thu 03:06:41 PM 38.1682 -113.3721 195° South 433 498 36,000  Level FlightAware ADS-B
Thu 03:07:19 PM 38.0977 -113.3997 204° Southwest 432 497 36,000  Level FlightAware ADS-B
Thu 03:08:23 PM 37.9866 -113.4799 210° Southwest 435 501 36,000 47 Level FlightAware ADS-B
Thu 03:09:27 PM 37.8714 -113.5632 209° Southwest 435 501 36,100  Climbing FlightAware ADS-B
Thu 03:10:31 PM 37.7601 -113.6423 209° Southwest 432 497 36,000 -48 Descending FlightAware ADS-B
Thu 03:11:33 PM 37.6593 -113.7141 209° Southwest 430 495 36,000  Level FlightAware ADS-B
Thu 03:12:37 PM 37.5417 -113.7969 209° Southwest 428 493 36,000  Level FlightAware ADS-B
Thu 03:13:18 PM 37.4711 -113.8467 209° Southwest 427 491 36,000  Level FlightAware ADS-B
Thu 03:13:58 PM 37.4015 -113.8960 209° Southwest 426 490 36,000  Level FlightAware ADS-B
Thu 03:14:36 PM 37.3373 -113.9411 209° Southwest 425 489 36,000  Level FlightAware ADS-B
Thu 03:15:09 PM 37.2810 -113.9806 209° Southwest 425 489 36,000  Level FlightAware ADS-B
Thu 03:15:49 PM 37.2117 -114.0289 209° Southwest 425 489 36,000  Level FlightAware ADS-B
Thu 03:16:25 PM 37.1510 -114.0714 209° Southwest 425 489 36,000  Level FlightAware ADS-B
Thu 03:16:56 PM 37.0970 -114.1091 209° Southwest 426 490 36,000  Level FlightAware ADS-B
Thu 03:17:29 PM 37.0401 -114.1488 209° Southwest 427 491 36,000  Level FlightAware ADS-B
Thu 03:18:08 PM 36.9716 -114.1965 209° Southwest 427 491 36,000  Level FlightAware ADS-B
Thu 03:18:44 PM 36.9102 -114.2391 209° Southwest 427 491 36,000  Level FlightAware ADS-B
Thu 03:19:29 PM 36.8332 -114.2922 209° Southwest 427 491 36,000  Level FlightAware ADS-B
Thu 03:20:59 PM 36.6773 -114.3994 209° Southwest 427 491 36,000  Level FlightAware ADS-B
Thu 03:21:31 PM 36.6224 -114.4373 209° Southwest 427 491 36,000  Level FlightAware ADS-B
Thu 03:22:02 PM 36.5678 -114.4749 209° Southwest 428 493 36,000  Level FlightAware ADS-B
Thu 03:23:04 PM 36.4636 -114.5456 209° Southwest 426 490 36,000  Level Los Angeles Center
Thu 03:24:07 PM 36.3583 -114.6161 208° Southwest 427 491 36,000  Level Los Angeles Center
Thu 03:25:09 PM 36.2539 -114.6883 209° Southwest 428 493 36,000  Level Los Angeles Center
Thu 03:26:11 PM 36.1489 -114.7586 208° Southwest 427 491 36,000  Level Los Angeles Center
Thu 03:27:13 PM 36.0456 -114.8303 209° Southwest 425 489 36,000  Level Los Angeles Center
Thu 03:28:15 PM 35.9528 -114.9208 218° Southwest 423 487 36,000  Level Los Angeles Center
Thu 03:29:18 PM 35.8747 -115.0294 228° Southwest 421 484 36,000  Level Los Angeles Center
Thu 03:30:20 PM 35.7794 -115.1569 227° Southwest 420 483 36,000  Level Los Angeles Center
Thu 03:31:22 PM 35.6994 -115.2658 228° Southwest 424 488 36,000  Level Los Angeles Center
Thu 03:32:24 PM 35.6206 -115.3736 228° Southwest 423 487 36,000  Level Los Angeles Center
Thu 03:33:26 PM 35.5403 -115.4825 228° Southwest 427 491 36,000  Level Los Angeles Center
Thu 03:34:29 PM 35.4569 -115.5931 227° Southwest 431 496 36,000  Level Los Angeles Center
Thu 03:35:31 PM 35.3753 -115.7033 228° Southwest 434 499 36,000  Level Los Angeles Center
Thu 03:36:33 PM 35.2939 -115.8111 227° Southwest 433 498 36,000  Level Los Angeles Center
Thu 03:37:35 PM 35.2119 -115.9183 227° Southwest 432 497 36,000 -484 Level Los Angeles Center
Thu 03:38:37 PM 35.1158 -116.0475 228° Southwest 430 495 35,000 -1,296 Descending Los Angeles Center
Thu 03:39:40 PM 35.0347 -116.1533 227° Southwest 426 490 33,300 -1,728 Descending Los Angeles Center
Thu 03:40:42 PM 34.9506 -116.2617 227° Southwest 435 501 31,400 -2,032 Descending Los Angeles Center
Thu 03:41:44 PM 34.8692 -116.3669 227° Southwest 431 496 29,100 -2,274 Descending Los Angeles Center
Thu 03:42:46 PM 34.7917 -116.4694 227° Southwest 417 480 26,700 -2,274 Descending Los Angeles Center
Thu 03:43:48 PM 34.7158 -116.5633 226° Southwest 392 451 24,400 -1,593 Descending Los Angeles Center
Thu 03:50:52 PM 34.1482 -117.0435 202° Southwest 341 392 13,800 -1,467 Descending FlightAware ADS-B (KBNG)
Thu 03:51:22 PM 34.1048 -117.0666 205° Southwest 345 397 13,300 -750 Descending FlightAware ADS-B (KBNG)
Thu 03:51:56 PM 34.0547 -117.0943 205° Southwest 344 396 13,000 -583 Descending FlightAware ADS-B (KBNG)
Thu 03:52:34 PM 34.0000 -117.1241 204° Southwest 339 390 12,600 -636 Descending FlightAware ADS-B (KBNG)
Thu 03:53:02 PM 33.9627 -117.1516 225° Southwest 344 396 12,300 -913 Descending FlightAware ADS-B (KBNG)
Thu 03:53:20 PM 33.9449 -117.1807 237° Southwest 347 399 11,900 -1,278 Descending FlightAware ADS-B (KBNG)
Thu 03:54:50 PM 33.8745 -117.3140 238° Southwest 301 346 10,000 -848 Descending FlightAware ADS-B (KBNG)
Thu 03:57:56 PM 33.7801 -117.5598 271° West 259 298 8,000 -541 Descending FlightAware ADS-B
Thu 03:58:32 PM 33.7765 -117.6116 251° West 259 298 8,000 -211 Level FlightAware ADS-B
Thu 03:58:53 PM 33.7676 -117.6393 248° West 263 303 7,800 -857 Descending FlightAware ADS-B
Thu 03:59:21 PM 33.7551 -117.6771 249° West 261 300 7,300 -1,067 Descending FlightAware ADS-B
Thu 03:59:38 PM 33.7474 -117.7002 248° West 256 295 7,000 -1,265 Descending FlightAware ADS-B
Thu 04:02:45 PM 33.6741 -117.9345 267° West 232 267 3,000 -984 Descending FlightAware ADS-B
Thu 04:03:42 PM 33.6906 -117.9975 311° West 207 238 3,000  Level FlightAware ADS-B
Thu 04:04:02 PM 33.7047 -118.0147 315° West 200 230 3,000 -800 Level FlightAware ADS-B
Thu 04:05:27 PM 33.7561 -118.0768 316° Northwest 161 185 1,600 -917 Descending FlightAware ADS-B
Thu 04:06:26 PM 33.7833 -118.1167 316° Northwest 143 165 800 -706 Descending Southern California TRACON
Thu 04:07:26 PM 33.8167 -118.1500 320° Northwest 143 165 200 -600 Descending Southern California TRACON

Login

Don't have an account? Register now (free) for customized features, flight alerts, and more!